Time;durP1;ratioP1;P1;durP2;ratioP2;P2;SDS_P1;SDS_P2;PMS_P1;PMS_P2;Temp;Humidity;BMP_temperature;BMP_pressure;BME280_temperature;BME280_humidity;BME280_pressure;Samples;Min_cycle;Max_cycle;Signal;HPM_P1;HPM_P2
2022/05/31 00:00:32;;;;;;;84.30;11.57;;;;;;;19.78;61.73;95163.63;4953702;29;20089;-83
2022/05/31 00:02:59;;;;;;;44.60;7.63;;;;;;;19.58;61.54;95156.38;4936618;29;20031;-84
2022/05/31 00:05:25;;;;;;;52.75;9.25;;;;;;;19.94;61.25;95210.34;4953682;29;20043;-82
2022/05/31 00:07:52;;;;;;;34.38;7.30;;;;;;;19.84;61.91;95237.66;4954087;29;20095;-82
2022/05/31 00:10:18;;;;;;;20.92;5.65;;;;;;;19.71;62.38;95240.63;4936956;29;20506;-82
2022/05/31 00:12:43;;;;;;;35.53;7.32;;;;;;;19.37;62.04;95179.81;4936835;28;20049;-83
2022/05/31 00:15:11;;;;;;;22.75;5.45;;;;;;;19.71;62.36;95235.25;4954184;29;20106;-83
2022/05/31 00:17:37;;;;;;;19.38;5.85;;;;;;;19.39;62.70;95199.06;4936483;29;20043;-83
2022/05/31 00:20:05;;;;;;;54.20;9.52;;;;;;;19.47;62.93;95235.91;4953692;29;20035;-82
2022/05/31 00:22:33;;;;;;;56.28;8.85;;;;;;;19.37;63.35;95244.34;4952116;28;20036;-82
2022/05/31 00:24:59;;;;;;;99.72;13.43;;;;;;;19.23;62.77;95188.91;4953249;29;20035;-82
2022/05/31 00:27:26;;;;;;;100.53;12.27;;;;;;;18.89;62.80;95151.53;4937134;29;20387;-82
2022/05/31 00:29:52;;;;;;;68.00;11.82;;;;;;;19.65;62.58;95243.53;4936264;29;20043;-82
2022/05/31 00:32:22;;;;;;;85.78;10.65;;;;;;;19.00;62.49;95149.22;4953768;29;20031;-82
2022/05/31 00:34:50;;;;;;;119.03;12.73;;;;;;;19.56;62.03;95223.97;4953178;29;20118;-82
2022/05/31 00:37:15;;;;;;;85.18;13.02;;;;;;;19.14;62.68;95173.97;4953827;29;20050;-82
2022/05/31 00:39:41;;;;;;;68.57;11.20;;;;;;;19.35;61.82;95195.47;4936604;29;20043;-82
2022/05/31 00:42:13;;;;;;;43.50;8.68;;;;;;;19.83;61.45;95251.44;4953475;28;20038;-83
2022/05/31 00:44:39;;;;;;;31.50;6.65;;;;;;;19.62;61.48;95217.25;4939816;29;20035;-82
2022/05/31 00:47:25;;;;;;;37.65;7.60;;;;;;;19.91;61.08;95247.91;4957361;29;20035;-82
2022/05/31 00:49:56;;;;;;;17.15;5.57;;;;;;;19.42;61.35;95188.44;4940194;29;20620;-82
2022/05/31 00:52:25;;;;;;;20.42;5.78;;;;;;;19.79;61.25;95232.47;4957768;29;20417;-82
2022/05/31 00:54:57;;;;;;;28.73;6.53;;;;;;;19.80;62.22;95247.50;4940427;29;20042;-82
2022/05/31 00:57:23;;;;;;;30.83;6.75;;;;;;;19.22;62.68;95167.75;4950586;29;20031;-82
2022/05/31 00:59:53;;;;;;;36.72;6.65;;;;;;;19.37;62.53;95188.66;4943861;29;20062;-82
2022/05/31 01:02:19;;;;;;;33.08;6.80;;;;;;;19.02;63.46;95176.56;4931296;29;20130;-82
2022/05/31 01:04:49;;;;;;;26.92;5.90;;;;;;;19.33;63.55;95217.31;4947663;29;20027;-82
2022/05/31 01:07:16;;;;;;;16.17;5.90;;;;;;;19.60;63.56;95261.78;4939603;29;20037;-82
2022/05/31 01:09:41;;;;;;;24.85;5.75;;;;;;;19.15;63.02;95162.88;4926977;29;20071;-82
2022/05/31 01:12:07;;;;;;;14.85;5.60;;;;;;;19.30;63.01;95177.63;4950281;29;20070;-82
2022/05/31 01:14:33;;;;;;;17.25;5.38;;;;;;;18.91;63.81;95188.81;4957497;29;20577;-82
2022/05/31 01:17:01;;;;;;;14.85;5.07;;;;;;;19.61;63.61;95261.41;4940476;29;20066;-82
2022/05/31 01:22:11;;;;;;;17.38;5.68;;;;;;;18.95;63.45;95155.59;4958979;29;20067;-83
2022/05/31 01:25:07;;;;;;;10.90;4.97;;;;;;;19.72;63.50;95261.81;4942974;29;20027;-83
2022/05/31 01:27:32;;;;;;;14.50;5.43;;;;;;;19.72;63.62;95269.09;4957571;29;20106;-83
2022/05/31 01:30:02;;;;;;;15.75;5.68;;;;;;;19.45;63.34;95221.97;4939796;29;20477;-83
2022/05/31 01:32:27;;;;;;;12.93;5.40;;;;;;;19.14;63.97;95195.47;4956803;29;20067;-83
2022/05/31 01:35:00;;;;;;;18.17;5.40;;;;;;;19.38;64.32;95257.44;4939419;29;20020;-83
2022/05/31 01:37:40;;;;;;;15.70;6.07;;;;;;;19.42;64.59;95268.34;4956636;29;20090;-82
2022/05/31 01:40:12;;;;;;;13.68;5.40;;;;;;;18.18;64.29;95072.75;4956762;29;20735;-83
2022/05/31 01:42:42;;;;;;;21.52;5.95;;;;;;;19.19;64.87;95235.59;4939434;28;20034;-82
2022/05/31 01:45:20;;;;;;;16.88;6.07;;;;;;;18.78;65.02;95187.94;4939199;29;20418;-82
2022/05/31 01:47:45;;;;;;;15.82;5.63;;;;;;;18.30;65.53;95115.81;4938792;29;20035;-83
2022/05/31 01:50:14;;;;;;;14.75;5.97;;;;;;;18.10;65.44;95093.94;4938736;29;20064;-83
2022/05/31 01:52:40;;;;;;;13.20;5.45;;;;;;;18.56;65.57;95151.38;4956315;29;20034;-82
2022/05/31 01:55:08;;;;;;;17.70;6.05;;;;;;;19.12;65.22;95235.31;4955576;28;20043;-83
2022/05/31 01:57:34;;;;;;;13.13;6.00;;;;;;;18.44;65.80;95153.97;4937613;29;20027;-82
2022/05/31 02:00:04;;;;;;;9.77;5.65;;;;;;;18.17;65.85;95124.84;4955837;29;20585;-82
2022/05/31 02:02:30;;;;;;;13.40;6.05;;;;;;;18.32;65.74;95151.94;4955946;28;20035;-82
2022/05/31 02:04:55;;;;;;;16.40;5.63;;;;;;;18.47;66.84;95205.09;4924801;29;20591;-82
2022/05/31 02:07:23;;;;;;;11.48;5.63;;;;;;;18.54;67.18;95226.09;4940387;29;20513;-82
2022/05/31 02:09:51;;;;;;;19.05;5.95;;;;;;;18.98;66.67;95267.03;4928969;29;20047;-83
2022/05/31 02:12:18;;;;;;;12.88;5.72;;;;;;;18.44;67.16;95213.03;4938112;29;20039;-82
2022/05/31 02:14:44;;;;;;;21.35;6.28;;;;;;;18.31;67.43;95209.44;4943045;28;20051;-82
2022/05/31 02:17:10;;;;;;;16.83;5.93;;;;;;;18.80;67.17;95274.38;4949828;29;20035;-83
2022/05/31 02:19:35;;;;;;;14.27;6.25;;;;;;;18.38;66.92;95215.13;4954995;29;20434;-82
2022/05/31 02:22:04;;;;;;;14.93;6.63;;;;;;;18.44;67.13;95213.03;4937832;29;20039;-82
2022/05/31 02:24:30;;;;;;;18.65;6.38;;;;;;;18.77;67.15;95265.06;4955545;28;20109;-82
2022/05/31 02:26:56;;;;;;;16.60;6.15;;;;;;;17.88;66.65;95106.81;4955002;29;20514;-82
2022/05/31 02:29:24;;;;;;;19.27;6.35;;;;;;;18.14;67.25;95161.19;4938297;29;20043;-82
2022/05/31 02:31:50;;;;;;;19.25;6.03;;;;;;;18.98;66.58;95275.09;4954996;29;20032;-82
2022/05/31 02:34:22;;;;;;;15.07;6.50;;;;;;;19.04;66.41;95276.47;4954827;29;20035;-82
2022/05/31 02:36:48;;;;;;;18.30;6.93;;;;;;;18.61;66.01;95226.44;4937340;28;20122;-82
2022/05/31 02:39:13;;;;;;;17.60;6.82;;;;;;;18.23;67.09;95201.44;4954308;29;20150;-82
2022/05/31 02:41:39;;;;;;;22.42;6.90;;;;;;;18.58;66.87;95229.75;4955795;29;20066;-82
2022/05/31 02:44:05;;;;;;;21.83;6.78;;;;;;;18.49;66.68;95210.16;4940446;29;20031;-82
2022/05/31 02:46:31;;;;;;;15.88;6.05;;;;;;;18.93;66.84;95277.94;4955094;28;20058;-83
2022/05/31 02:48:56;;;;;;;15.43;6.90;;;;;;;17.86;66.10;95100.97;4955434;29;20031;-82
2022/05/31 02:51:22;;;;;;;12.75;6.38;;;;;;;18.47;66.26;95193.56;4938152;29;20390;-82
2022/05/31 02:53:47;;;;;;;10.57;6.00;;;;;;;18.94;66.08;95263.41;4954910;29;20038;-82
2022/05/31 02:56:13;;;;;;;19.00;6.80;;;;;;;18.36;65.73;95169.00;4955602;29;20042;-83
2022/05/31 02:58:38;;;;;;;16.48;6.65;;;;;;;19.04;66.01;95295.28;4953858;28;20185;-82
2022/05/31 03:01:25;;;;;;;31.88;7.40;;;;;;;19.05;66.12;95294.97;4937771;29;20040;-82
2022/05/31 03:03:51;;;;;;;32.67;7.82;;;;;;;19.11;66.07;95299.03;4937824;29;20035;-82
2022/05/31 03:06:18;;;;;;;51.45;9.30;;;;;;;18.71;65.79;95247.53;4936485;29;20039;-84
2022/05/31 03:08:43;;;;;;;38.30;8.82;;;;;;;18.65;65.34;95221.97;4954216;29;20031;-83
2022/05/31 03:11:14;;;;;;;40.35;8.35;;;;;;;18.86;65.26;95260.44;4954707;28;20481;-82
2022/05/31 03:13:41;;;;;;;23.92;7.70;;;;;;;18.91;65.17;95269.44;4953111;29;20042;-82
2022/05/31 03:16:07;;;;;;;19.65;6.65;;;;;;;19.09;64.24;95301.25;4954666;29;20039;-83
2022/05/31 03:18:40;;;;;;;14.68;6.95;;;;;;;18.39;63.81;95208.59;4937920;29;20498;-83
2022/05/31 03:21:13;;;;;;;17.15;7.68;;;;;;;18.02;64.09;95159.16;4937036;29;20136;-82
2022/05/31 03:23:49;;;;;;;16.48;7.65;;;;;;;18.32;63.83;95215.59;4937132;29;20035;-82
2022/05/31 03:26:18;;;;;;;16.23;7.25;;;;;;;18.40;64.06;95236.25;4954549;29;20517;-83
2022/05/31 03:28:44;;;;;;;19.25;7.72;;;;;;;18.41;64.02;95245.88;4954931;29;20045;-83
2022/05/31 03:31:10;;;;;;;19.67;7.30;;;;;;;18.77;63.47;95296.50;4936982;29;20035;-83
2022/05/31 03:33:35;;;;;;;22.58;7.50;;;;;;;18.08;64.39;95214.22;4936654;29;20031;-82
2022/05/31 03:36:01;;;;;;;14.57;7.35;;;;;;;17.64;64.07;95136.84;4937313;29;20513;-82
2022/05/31 03:38:26;;;;;;;17.73;7.55;;;;;;;18.69;64.37;95322.28;4954642;29;20453;-82
2022/05/31 03:40:58;;;;;;;22.48;7.95;;;;;;;18.51;63.93;95294.69;4936420;29;20134;-83
2022/05/31 03:43:35;;;;;;;12.70;7.22;;;;;;;18.52;63.84;95298.94;4954353;29;20406;-82
2022/05/31 03:46:01;;;;;;;16.67;7.78;;;;;;;18.84;63.61;95326.38;4936823;29;20051;-82
2022/05/31 03:48:29;;;;;;;26.05;7.88;;;;;;;18.64;63.84;95309.03;4936536;29;20175;-82
2022/05/31 03:51:01;;;;;;;24.67;8.48;;;;;;;18.82;63.68;95332.06;4954086;29;20039;-82
2022/05/31 03:53:27;;;;;;;19.77;8.00;;;;;;;18.59;63.51;95287.72;4954287;29;20054;-83
2022/05/31 03:55:53;;;;;;;23.58;7.43;;;;;;;18.89;63.71;95337.72;4954419;29;20050;-83
2022/05/31 03:58:19;;;;;;;15.40;8.18;;;;;;;18.85;64.03;95330.59;4936502;29;20031;-82
2022/05/31 04:00:46;;;;;;;17.92;7.55;;;;;;;18.57;64.45;95298.00;4936351;29;20039;-83
2022/05/31 04:03:11;;;;;;;20.05;8.80;;;;;;;18.42;64.36;95269.75;4953799;29;20035;-82
2022/05/31 04:05:37;;;;;;;19.48;7.93;;;;;;;18.39;64.46;95273.06;4946801;29;20405;-82
2022/05/31 04:08:06;;;;;;;24.20;8.77;;;;;;;18.50;64.15;95274.28;4930601;29;20102;-82
2022/05/31 04:10:32;;;;;;;20.95;8.07;;;;;;;18.71;64.13;95295.09;4953785;29;20042;-83
2022/05/31 04:12:58;;;;;;;18.42;7.30;;;;;;;18.39;64.46;95250.78;4942082;29;20044;-82
2022/05/31 04:15:25;;;;;;;14.63;6.80;;;;;;;18.81;63.70;95308.97;4936154;29;20035;-83
2022/05/31 04:17:50;;;;;;;20.92;7.35;;;;;;;18.80;63.14;95293.97;4953460;28;20043;-84
2022/05/31 04:20:16;;;;;;;18.83;7.03;;;;;;;19.14;63.12;95341.44;4944367;29;20043;-84
2022/05/31 04:22:41;;;;;;;19.42;7.32;;;;;;;18.88;62.87;95300.41;4934596;29;20032;-84
2022/05/31 04:25:07;;;;;;;11.02;6.53;;;;;;;18.67;62.65;95246.63;4936412;29;20039;-84
2022/05/31 04:27:32;;;;;;;14.50;6.85;;;;;;;18.36;62.29;95206.59;4948009;29;20039;-84
2022/05/31 04:29:58;;;;;;;24.02;8.13;;;;;;;18.49;61.95;95227.06;4926544;29;20034;-84
2022/05/31 04:32:24;;;;;;;20.00;7.18;;;;;;;18.89;61.92;95277.81;4946238;29;20295;-84
2022/05/31 04:34:50;;;;;;;24.92;8.75;;;;;;;19.30;62.16;95362.38;4930141;29;20470;-85
2022/05/31 04:37:16;;;;;;;21.92;9.05;;;;;;;18.99;62.43;95317.78;4926984;29;20143;-84
2022/05/31 04:39:42;;;;;;;28.63;9.35;;;;;;;19.27;62.74;95383.44;4919574;29;20036;-84
2022/05/31 04:42:08;;;;;;;21.85;8.93;;;;;;;18.58;62.61;95266.56;4922781;29;20046;-84
2022/05/31 04:44:41;;;;;;;22.70;9.25;;;;;;;18.21;62.67;95239.31;4919739;29;20042;-84
2022/05/31 04:47:08;;;;;;;21.70;8.75;;;;;;;17.28;62.70;95064.81;4928063;29;20553;-83
2022/05/31 04:49:34;;;;;;;18.88;7.82;;;;;;;19.26;62.21;95357.66;4935325;29;20062;-84
2022/05/31 04:52:00;;;;;;;18.67;7.97;;;;;;;18.33;62.30;95233.28;4923863;29;20036;-84
2022/05/31 04:54:30;;;;;;;20.42;8.55;;;;;;;17.06;62.61;95060.44;4927759;29;20074;-84
2022/05/31 04:56:59;;;;;;;19.02;8.48;;;;;;;17.16;62.64;95053.97;4920096;29;20055;-83
2022/05/31 04:59:26;;;;;;;22.80;8.82;;;;;;;18.60;63.38;95275.88;4920128;29;20055;-83
2022/05/31 05:01:51;;;;;;;21.35;9.77;;;;;;;18.24;63.47;95211.03;4934734;29;20031;-84
2022/05/31 05:04:16;;;;;;;24.85;10.30;;;;;;;19.01;63.34;95328.19;4926242;29;20082;-85
2022/05/31 05:06:42;;;;;;;20.90;10.73;;;;;;;18.48;63.46;95244.28;4919400;29;20038;-84
2022/05/31 05:09:07;;;;;;;26.38;10.98;;;;;;;19.53;63.26;95371.78;4928465;29;20103;-84
2022/05/31 05:11:33;;;;;;;28.08;10.82;;;;;;;19.54;63.41;95365.28;4917535;29;20036;-84
2022/05/31 05:13:59;;;;;;;32.40;11.73;;;;;;;19.55;62.80;95337.25;4917231;29;20061;-84
2022/05/31 05:16:26;;;;;;;32.42;12.05;;;;;;;19.80;62.64;95373.19;4920441;29;20035;-84
2022/05/31 05:18:51;;;;;;;25.20;11.55;;;;;;;19.22;63.29;95304.84;4934226;29;20422;-84
2022/05/31 05:21:17;;;;;;;27.00;11.80;;;;;;;19.73;62.91;95367.53;4916429;29;20425;-83
2022/05/31 05:23:44;;;;;;;21.48;12.13;;;;;;;19.33;62.61;95287.22;4912082;29;20067;-83
2022/05/31 05:26:10;;;;;;;26.52;11.07;;;;;;;19.86;62.70;95379.97;4916746;29;20119;-83
2022/05/31 05:31:26;;;;;;;31.42;13.40;;;;;;;19.81;62.66;95342.47;4931435;29;20054;-84
2022/05/31 05:33:53;;;;;;;34.85;12.85;;;;;;;20.12;62.22;95375.19;4925906;29;20039;-84
2022/05/31 05:36:19;;;;;;;27.85;12.18;;;;;;;19.86;62.73;95363.81;4930244;29;20115;-85
2022/05/31 05:38:45;;;;;;;26.15;12.60;;;;;;;19.68;62.73;95341.63;4926665;29;20122;-84
2022/05/31 05:41:11;;;;;;;39.50;13.60;;;;;;;19.77;62.67;95336.16;4929616;29;20178;-85
2022/05/31 05:43:37;;;;;;;33.95;12.65;;;;;;;19.86;62.44;95326.91;4912243;29;20028;-84
2022/05/31 05:46:03;;;;;;;31.20;12.65;;;;;;;20.30;61.93;95384.69;4903602;29;20028;-85
2022/05/31 05:48:29;;;;;;;23.95;11.30;;;;;;;20.25;61.77;95373.34;4897192;29;20155;-84
2022/05/31 05:50:54;;;;;;;29.08;11.30;;;;;;;19.90;61.47;95297.47;4907246;29;21195;-84
2022/05/31 05:53:20;;;;;;;31.95;12.23;;;;;;;19.11;61.28;95153.09;4903299;29;20142;-84
2022/05/31 05:55:45;;;;;;;29.23;11.88;;;;;;;20.59;61.11;95378.47;4910073;29;20222;-85
2022/05/31 05:58:11;;;;;;;25.08;12.05;;;;;;;20.31;61.17;95335.09;4907296;29;20110;-84
2022/05/31 06:00:42;;;;;;;21.95;12.30;;;;;;;20.22;61.15;95309.34;4926590;29;20035;-83
2022/05/31 06:03:28;;;;;;;;;;;;;;;20.59;61.23;95383.06;4911209;29;20064;-84
2022/05/31 06:05:56;;;;;;;34.08;14.02;;;;;;;19.76;61.53;95273.50;4927776;29;19926;-84
2022/05/31 06:08:33;;;;;;;27.23;14.30;;;;;;;20.30;62.23;95379.31;4906692;29;20126;-86
2022/05/31 06:11:11;;;;;;;31.73;14.98;;;;;;;19.13;62.16;95205.44;4907414;29;20126;-84
2022/05/31 06:13:45;;;;;;;30.35;14.23;;;;;;;20.44;61.76;95387.16;4907955;29;20042;-86
2022/05/31 06:16:14;;;;;;;23.42;13.02;;;;;;;20.13;62.02;95357.13;4931697;29;20454;-84
2022/05/31 06:19:08;;;;;;;31.08;13.07;;;;;;;20.40;62.07;95383.53;4908450;29;20035;-83
2022/05/31 06:21:34;;;;;;;32.17;14.07;;;;;;;20.23;61.65;95335.16;4897001;29;20051;-84
2022/05/31 06:24:01;;;;;;;33.80;14.15;;;;;;;20.10;62.33;95363.16;4911191;29;20442;-84
2022/05/31 06:26:28;;;;;;;40.10;14.57;;;;;;;19.04;62.42;95166.28;4914666;29;20058;-85
2022/05/31 06:28:53;;;;;;;35.47;13.63;;;;;;;20.36;62.93;95382.63;4930015;29;20051;-84
2022/05/31 06:31:18;;;;;;;36.95;14.52;;;;;;;20.20;62.48;95325.06;4925090;29;20073;-86
2022/05/31 06:33:44;;;;;;;24.75;13.10;;;;;;;20.37;62.23;95328.41;4905020;29;20039;-85
2022/05/31 06:36:10;;;;;;;30.63;13.93;;;;;;;20.27;61.83;95319.94;4921269;29;20106;-84
2022/05/31 06:38:35;;;;;;;38.78;14.43;;;;;;;20.67;61.58;95352.53;4912438;29;20387;-84
2022/05/31 06:41:02;;;;;;;30.60;14.48;;;;;;;20.66;61.06;95348.28;4911219;29;20503;-86
2022/05/31 06:43:28;;;;;;;24.95;12.90;;;;;;;19.92;60.84;95244.06;4925853;29;20031;-86
2022/05/31 06:45:54;;;;;;;24.10;13.82;;;;;;;20.37;60.60;95311.47;4909353;29;20055;-85
2022/05/31 06:48:19;;;;;;;29.48;13.00;;;;;;;20.63;61.02;95333.53;4924905;29;20042;-85
2022/05/31 06:50:45;;;;;;;29.58;13.25;;;;;;;20.49;60.42;95289.16;4910693;29;20028;-85
2022/05/31 06:58:43;;;;;;;29.45;11.60;;;;;;;20.32;59.89;95263.16;4924861;29;20062;-84
2022/05/31 07:01:09;;;;;;;34.83;11.88;;;;;;;20.71;59.90;95286.84;4889879;29;20058;-85
2022/05/31 07:03:34;;;;;;;32.42;12.15;;;;;;;20.75;60.25;95287.00;4893493;29;20031;-84
2022/05/31 07:06:00;;;;;;;32.47;11.90;;;;;;;20.99;59.66;95296.97;4889505;29;20160;-85
2022/05/31 07:08:26;;;;;;;35.08;11.98;;;;;;;21.25;59.96;95337.16;4908844;29;20054;-86
2022/05/31 07:10:52;;;;;;;23.95;11.30;;;;;;;21.27;59.89;95335.69;4913323;29;20050;-86
2022/05/31 07:13:19;;;;;;;25.55;11.50;;;;;;;20.51;59.29;95235.75;4894267;29;20032;-85
2022/05/31 07:15:44;;;;;;;30.48;12.13;;;;;;;20.94;59.49;95303.41;4888121;29;20040;-85
2022/05/31 07:18:10;;;;;;;30.95;13.30;;;;;;;21.50;59.33;95349.53;4890046;29;20106;-84
2022/05/31 07:20:35;;;;;;;23.70;11.63;;;;;;;20.08;58.77;95123.88;4889892;29;20481;-85
2022/05/31 07:23:01;;;;;;;31.42;12.02;;;;;;;21.82;58.62;95362.06;4895327;29;20068;-85
2022/05/31 07:25:26;;;;;;;22.13;11.90;;;;;;;21.37;58.28;95315.56;4892123;29;20040;-84
2022/05/31 07:27:52;;;;;;;19.75;10.43;;;;;;;21.60;58.63;95332.84;4909701;29;20526;-84
2022/05/31 07:30:17;;;;;;;31.35;11.18;;;;;;;21.83;58.43;95371.72;4909991;29;20032;-84
2022/05/31 07:32:43;;;;;;;24.88;10.90;;;;;;;21.17;58.33;95295.69;4889393;29;20307;-84
2022/05/31 07:35:09;;;;;;;23.40;11.32;;;;;;;21.68;58.28;95371.63;4896682;29;20039;-85
2022/05/31 07:37:35;;;;;;;30.88;12.40;;;;;;;21.12;58.33;95285.09;4891887;29;20079;-84
2022/05/31 07:40:02;;;;;;;33.70;11.98;;;;;;;21.26;57.77;95307.16;4894423;29;20039;-85
2022/05/31 07:42:28;;;;;;;27.17;10.85;;;;;;;21.79;58.15;95361.97;4890405;29;20040;-84
2022/05/31 07:44:57;;;;;;;21.42;10.43;;;;;;;21.66;58.27;95320.72;4889476;29;21152;-85
2022/05/31 07:47:23;;;;;;;23.50;11.52;;;;;;;21.44;57.18;95297.69;4891465;29;20166;-85
2022/05/31 07:49:49;;;;;;;24.27;10.13;;;;;;;21.72;56.67;95335.56;4889182;29;20036;-84
2022/05/31 07:52:15;;;;;;;22.83;9.30;;;;;;;21.56;55.82;95294.97;4892248;29;20054;-85
2022/05/31 07:54:40;;;;;;;24.38;9.65;;;;;;;21.64;55.67;95290.56;4890677;29;20095;-85
2022/05/31 07:57:07;;;;;;;25.75;10.73;;;;;;;21.14;56.70;95221.59;4890290;29;20370;-85
2022/05/31 07:59:34;;;;;;;23.80;10.02;;;;;;;21.62;56.21;95295.53;4920361;29;20065;-84
2022/05/31 08:02:00;;;;;;;26.23;9.98;;;;;;;22.07;56.10;95352.03;4917517;29;20067;-84
2022/05/31 08:04:29;;;;;;;27.95;9.98;;;;;;;21.55;56.13;95233.25;4924853;29;20537;-84
2022/05/31 08:06:59;;;;;;;25.33;8.63;;;;;;;21.60;55.88;95224.13;4914599;29;20027;-85
2022/05/31 08:09:25;;;;;;;26.35;9.25;;;;;;;22.28;54.90;95333.72;4905947;29;20040;-84
2022/05/31 08:11:51;;;;;;;23.48;7.97;;;;;;;21.78;54.77;95244.31;4911429;29;20067;-83
2022/05/31 08:14:20;;;;;;;23.15;7.70;;;;;;;21.65;54.33;95215.81;4913008;29;20047;-84
2022/05/31 08:16:45;;;;;;;21.90;7.32;;;;;;;22.11;54.03;95284.63;4929357;29;20114;-83
2022/05/31 08:19:10;;;;;;;25.30;8.18;;;;;;;22.50;53.55;95361.34;4906872;29;20057;-84
2022/05/31 08:21:36;;;;;;;20.50;8.55;;;;;;;21.55;54.14;95209.75;4930624;29;20047;-84
2022/05/31 08:24:07;;;;;;;21.98;8.13;;;;;;;22.55;53.63;95344.88;4909818;29;20035;-84
2022/05/31 08:26:33;;;;;;;16.57;7.67;;;;;;;22.31;53.72;95300.63;4911211;29;20179;-85
2022/05/31 08:28:59;;;;;;;17.35;7.20;;;;;;;21.95;54.17;95241.34;4925987;29;20036;-84
2022/05/31 08:31:28;;;;;;;32.08;9.07;;;;;;;22.61;53.41;95335.38;4910116;29;20039;-83
2022/05/31 08:33:54;;;;;;;19.35;7.45;;;;;;;22.28;54.37;95278.91;4912482;29;20047;-84
2022/05/31 08:36:19;;;;;;;17.95;7.07;;;;;;;22.06;53.37;95237.03;4906444;29;20024;-84
2022/05/31 08:38:45;;;;;;;18.33;6.68;;;;;;;22.63;53.54;95327.72;4910745;29;20035;-85
2022/05/31 08:41:25;;;;;;;16.90;6.45;;;;;;;21.55;52.60;95123.41;4915819;29;20559;-85
2022/05/31 08:43:55;;;;;;;13.63;7.32;;;;;;;22.99;52.21;95322.13;4926865;29;20446;-84
2022/05/31 08:46:26;;;;;;;30.20;7.47;;;;;;;22.95;52.16;95321.25;4930796;29;20481;-84
2022/05/31 08:49:01;;;;;;;21.55;7.00;;;;;;;22.58;52.33;95257.72;4916014;29;20031;-85
2022/05/31 08:51:53;;;;;;;42.83;7.32;;;;;;;23.11;52.07;95318.56;4915975;29;20131;-84
2022/05/31 08:57:32;;;;;;;16.35;5.82;;;;;;;22.57;50.32;95212.88;4926953;29;20045;-85
2022/05/31 09:00:12;;;;;;;25.00;6.78;;;;;;;23.16;50.32;95285.03;4915047;29;20055;-85
2022/05/31 09:02:44;;;;;;;17.90;6.43;;;;;;;23.09;51.95;95272.13;4910689;29;20186;-84
2022/05/31 09:05:32;;;;;;;19.30;6.22;;;;;;;23.47;51.65;95302.00;4925779;29;20207;-84
2022/05/31 09:08:17;;;;;;;40.40;7.70;;;;;;;23.59;50.96;95306.53;4936107;29;20083;-86
2022/05/31 09:10:56;;;;;;;24.90;7.35;;;;;;;23.61;48.92;95303.50;4924027;29;20035;-86
2022/05/31 09:13:47;;;;;;;26.23;6.65;;;;;;;23.41;49.14;95252.00;4924113;29;20050;-86
2022/05/31 09:16:35;;;;;;;17.85;7.65;;;;;;;23.81;49.47;95307.78;4932527;29;20035;-86
2022/05/31 09:19:04;;;;;;;21.05;7.45;;;;;;;23.60;49.67;95281.03;4926557;29;20050;-86
2022/05/31 09:21:45;;;;;;;20.67;6.72;;;;;;;23.89;49.06;95308.72;4931565;29;20244;-86
2022/05/31 09:24:17;;;;;;;16.63;5.90;;;;;;;24.06;48.67;95302.91;4932211;29;20036;-85
2022/05/31 09:27:07;;;;;;;18.67;7.10;;;;;;;23.14;48.24;95170.97;4935910;29;20669;-86
2022/05/31 09:30:01;;;;;;;18.70;5.80;;;;;;;24.02;47.22;95296.66;4933327;29;20050;-87
2022/05/31 09:32:52;;;;;;;23.40;5.97;;;;;;;23.86;47.14;95294.00;4920873;29;20122;-86
2022/05/31 09:35:35;;;;;;;11.40;5.47;;;;;;;23.33;46.63;95193.44;4933519;29;20035;-86
2022/05/31 09:38:22;;;;;;;14.20;5.88;;;;;;;23.63;46.49;95233.53;4947095;29;20294;-85
2022/05/31 09:40:48;;;;;;;13.32;5.75;;;;;;;24.26;46.66;95287.47;4938275;29;20063;-85
2022/05/31 09:43:47;;;;;;;12.40;5.53;;;;;;;24.51;45.88;95259.69;4922822;29;20039;-85
2022/05/31 09:46:34;;;;;;;19.00;6.18;;;;;;;25.43;43.87;95278.66;4918606;29;20067;-85
2022/05/31 09:49:28;;;;;;;24.80;5.88;;;;;;;25.84;42.26;95166.34;4912697;29;20070;-86
2022/05/31 09:51:53;;;;;;;10.63;4.57;;;;;;;27.33;39.71;95292.13;4935363;29;20187;-85
2022/05/31 09:57:13;;;;;;;13.38;4.82;;;;;;;29.33;36.16;95293.34;4937793;29;20051;-84
2022/05/31 09:59:58;;;;;;;18.75;5.10;;;;;;;29.63;34.35;95210.97;4936255;28;20078;-85
2022/05/31 10:02:24;;;;;;;17.40;4.93;;;;;;;30.74;33.65;95291.44;4919030;29;20065;-85
2022/05/31 10:05:13;;;;;;;19.23;5.03;;;;;;;30.82;33.10;95289.44;4910800;29;20040;-85
2022/05/31 10:07:44;;;;;;;16.85;4.93;;;;;;;29.22;32.82;95003.06;4928999;29;20631;-86
2022/05/31 10:10:17;;;;;;;17.45;5.28;;;;;;;30.63;32.00;95110.06;4909179;29;20043;-85
2022/05/31 10:12:52;;;;;;;13.38;4.35;;;;;;;31.68;30.50;95254.72;4918496;29;20107;-85
2022/05/31 10:15:37;;;;;;;13.63;3.90;;;;;;;30.22;30.23;94932.16;4925404;29;20036;-86
2022/05/31 10:18:07;;;;;;;16.10;4.45;;;;;;;32.83;29.71;95275.69;4913893;29;20106;-85
2022/05/31 10:20:33;;;;;;;20.33;4.28;;;;;;;31.70;29.26;95047.53;4914245;29;20126;-85
2022/05/31 10:23:13;;;;;;;8.98;3.45;;;;;;;32.30;28.27;95191.31;4918178;29;20104;-85
2022/05/31 10:25:51;;;;;;;12.75;3.78;;;;;;;31.77;28.41;95096.00;4918285;29;20096;-86
2022/05/31 10:28:32;;;;;;;12.35;3.58;;;;;;;33.02;28.63;95268.00;4907319;29;20397;-85
2022/05/31 10:31:14;;;;;;;10.68;4.07;;;;;;;32.06;28.54;95190.44;4914986;29;20041;-86
2022/05/31 10:33:40;;;;;;;16.42;3.75;;;;;;;31.56;29.38;95187.47;4907436;29;20050;-85
2022/05/31 10:36:18;;;;;;;8.18;3.97;;;;;;;31.27;30.34;95200.69;4904762;29;20036;-86
2022/05/31 10:38:48;;;;;;;12.73;3.70;;;;;;;31.27;30.44;95195.22;4922632;29;20138;-85
2022/05/31 10:41:30;;;;;;;9.15;3.63;;;;;;;31.97;29.96;95246.97;4911066;29;20039;-86
2022/05/31 10:44:03;;;;;;;10.13;3.72;;;;;;;31.75;30.66;95243.69;4911547;29;20044;-85
2022/05/31 10:46:37;;;;;;;16.45;4.00;;;;;;;32.05;30.62;95242.94;4907533;29;20351;-84
2022/05/31 10:49:23;;;;;;;20.63;4.60;;;;;;;31.48;30.78;95245.50;4911394;29;20043;-84
2022/05/31 10:52:09;;;;;;;12.18;3.60;;;;;;;31.86;29.93;95241.63;4905445;29;20074;-85
2022/05/31 10:54:53;;;;;;;11.50;4.30;;;;;;;31.47;30.37;95238.47;4907037;29;20039;-84
2022/05/31 10:57:39;;;;;;;12.95;3.70;;;;;;;31.41;30.21;95232.66;4924514;29;20031;-84
2022/05/31 11:00:26;;;;;;;12.50;4.30;;;;;;;31.58;30.22;95239.94;4913036;29;20154;-84
2022/05/31 11:03:10;;;;;;;8.63;4.07;;;;;;;31.48;30.69;95220.84;4914631;29;20067;-84
2022/05/31 11:05:47;;;;;;;10.88;3.60;;;;;;;32.01;29.75;95223.03;4924547;29;20529;-84
2022/05/31 11:14:08;;;;;;;9.73;3.20;;;;;;;32.34;28.83;95205.78;4932212;28;20088;-85
2022/05/31 11:17:07;;;;;;;6.47;3.25;;;;;;;32.16;28.84;95184.06;4939403;29;20027;-85
2022/05/31 11:20:09;;;;;;;11.73;3.97;;;;;;;30.26;29.97;95119.72;4934844;29;20043;-85
2022/05/31 11:22:57;;;;;;;10.10;3.65;;;;;;;30.69;29.85;95207.78;4921436;29;20066;-84
2022/05/31 11:25:43;;;;;;;14.00;3.20;;;;;;;30.89;29.80;95194.34;4916429;29;20043;-85
2022/05/31 11:28:15;;;;;;;10.57;3.08;;;;;;;31.08;29.62;95192.25;4915734;29;20047;-84
2022/05/31 11:31:07;;;;;;;8.40;2.70;;;;;;;31.08;28.84;95193.03;4933023;29;20441;-84
2022/05/31 11:33:54;;;;;;;10.38;3.47;;;;;;;31.68;28.94;95188.94;4914688;29;20065;-84
2022/05/31 11:36:44;;;;;;;14.65;4.10;;;;;;;31.72;29.53;95192.41;4920206;29;20035;-84
2022/05/31 11:39:36;;;;;;;11.23;3.17;;;;;;;31.56;27.84;95175.72;4926143;29;20263;-83
2022/05/31 11:42:34;;;;;;;12.02;2.33;;;;;;;31.03;25.94;95112.06;4882135;29;20096;-83
2022/05/31 11:45:14;;;;;;;11.68;4.15;;;;;;;31.27;28.84;95183.47;4915624;29;20455;-82
2022/05/31 11:47:46;;;;;;;8.07;2.83;;;;;;;31.21;26.54;95174.91;4914161;29;21180;-83
2022/05/31 11:50:35;;;;;;;6.72;2.55;;;;;;;30.95;28.44;95148.13;4912707;29;20046;-82
2022/05/31 11:53:06;;;;;;;10.13;3.05;;;;;;;31.06;29.65;95185.22;4905652;29;20054;-84
2022/05/31 11:55:41;;;;;;;8.95;3.17;;;;;;;29.89;28.59;95048.44;4930459;29;20371;-82
2022/05/31 11:58:34;;;;;;;10.52;2.40;;;;;;;30.76;27.65;95170.56;4915144;29;20042;-82
2022/05/31 12:01:01;;;;;;;12.02;3.20;;;;;;;30.68;29.53;95172.59;4931509;29;20581;-83
2022/05/31 12:03:51;;;;;;;9.95;2.63;;;;;;;30.62;27.06;95171.47;4933106;29;20039;-83